Time;durP1;ratioP1;P1;durP2;ratioP2;P2;SDS_P1;SDS_P2;PMS_P1;PMS_P2;Temp;Humidity;BMP_temperature;BMP_pressure;BME280_temperature;BME280_humidity;BME280_pressure;Samples;Min_cycle;Max_cycle;Signal;HPM_P1;HPM_P2
2023/07/09 00:02:10;;;;;;;;;;;21.30;58.70;;;;;;5075193;28;20012;-65
2023/07/09 00:04:36;;;;;;;;;;;21.30;59.90;;;;;;5075272;28;20012;-65
2023/07/09 00:07:04;;;;;;;;;;;21.30;60.40;;;;;;5075224;28;20329;-65
2023/07/09 00:09:33;;;;;;;;;;;21.20;62.00;;;;;;5074943;28;20107;-65
2023/07/09 00:12:00;;;;;;;;;;;21.20;63.50;;;;;;5074916;28;20001;-65
2023/07/09 00:14:27;;;;;;;;;;;21.10;65.00;;;;;;5074922;28;20088;-65
2023/07/09 00:16:55;;;;;;;;;;;21.10;67.30;;;;;;5075236;28;20001;-65
2023/07/09 00:19:23;;;;;;;;;;;21.10;67.90;;;;;;5075239;28;20334;-65
2023/07/09 00:21:53;;;;;;;;;;;21.10;70.20;;;;;;5074705;28;20005;-65
2023/07/09 00:24:19;;;;;;;;;;;21.00;70.30;;;;;;5075152;28;20001;-65
2023/07/09 00:26:48;;;;;;;;;;;21.00;71.80;;;;;;5074792;28;20382;-65
2023/07/09 00:29:17;;;;;;;;;;;21.00;73.60;;;;;;5074662;28;20013;-65
2023/07/09 00:31:44;;;;;;;;;;;21.00;74.70;;;;;;5075157;28;20037;-65
2023/07/09 00:34:13;;;;;;;;;;;21.10;76.60;;;;;;5074934;28;20001;-67
2023/07/09 00:36:43;;;;;;;;;;;21.00;77.90;;;;;;5075046;28;20021;-65
2023/07/09 00:39:13;;;;;;;;;;;21.00;78.40;;;;;;5075115;28;20031;-65
2023/07/09 00:41:40;;;;;;;;;;;21.00;79.10;;;;;;5075092;28;20088;-65
2023/07/09 00:44:21;;;;;;;;;;;21.00;80.00;;;;;;5074817;28;20002;-65
2023/07/09 00:47:06;;;;;;;;;;;21.00;81.10;;;;;;5074819;28;20504;-65
2023/07/09 00:49:37;;;;;;;;;;;21.00;82.20;;;;;;5074967;28;20017;-66
2023/07/09 00:52:12;;;;;;;;;;;21.00;82.80;;;;;;5074745;28;19997;-65
2023/07/09 00:54:41;;;;;;;;;;;21.00;82.40;;;;;;5074791;28;19997;-65
2023/07/09 00:57:10;;;;;;;;;;;21.00;84.50;;;;;;5074555;28;20012;-65
2023/07/09 00:59:37;;;;;;;;;;;21.00;84.70;;;;;;5074594;28;20325;-65
2023/07/09 01:02:04;;;;;;;;;;;21.00;85.80;;;;;;5074537;28;20319;-65
2023/07/09 01:04:31;;;;;;;;;;;21.00;87.10;;;;;;5074683;28;20014;-65
2023/07/09 01:07:01;;;;;;;;;;;21.00;87.30;;;;;;5074538;28;20100;-66
2023/07/09 01:09:28;;;;;;;;;;;21.00;87.00;;;;;;5078699;28;20120;-65
2023/07/09 01:11:56;;;;;;;;;;;21.00;87.20;;;;;;5078612;28;20001;-65
2023/07/09 01:14:24;;;;;;;;;;;21.00;88.00;;;;;;5078523;28;20001;-65
2023/07/09 01:16:56;;;;;;;;;;;21.00;89.20;;;;;;5078611;28;20012;-65
2023/07/09 01:19:25;;;;;;;;;;;21.00;90.10;;;;;;5078827;28;20044;-65
2023/07/09 01:21:54;;;;;;;;;;;21.00;90.50;;;;;;5078388;28;20009;-65
2023/07/09 01:24:35;;;;;;;;;;;21.00;90.70;;;;;;5078417;28;20388;-65
2023/07/09 01:27:02;;;;;;;;;;;21.00;91.00;;;;;;5077900;28;20044;-65
2023/07/09 01:29:31;;;;;;;;;;;21.00;91.40;;;;;;5078684;28;20012;-65
2023/07/09 01:31:58;;;;;;;;;;;21.00;91.70;;;;;;5078223;28;20417;-65
2023/07/09 01:34:25;;;;;;;;;;;21.00;91.50;;;;;;5078384;28;20406;-65
2023/07/09 01:36:53;;;;;;;;;;;21.00;91.70;;;;;;5078078;28;20414;-65
2023/07/09 01:39:21;;;;;;;;;;;20.90;92.10;;;;;;5078332;28;20393;-65
2023/07/09 01:41:48;;;;;;;;;;;20.90;92.30;;;;;;5078140;28;20005;-65
2023/07/09 01:44:15;;;;;;;;;;;20.90;92.50;;;;;;5078219;28;20380;-66
2023/07/09 01:46:45;;;;;;;;;;;20.90;92.90;;;;;;5078183;28;20035;-66
2023/07/09 01:49:12;;;;;;;;;;;20.80;93.10;;;;;;5078192;28;20012;-65
2023/07/09 01:51:39;;;;;;;;;;;20.80;93.60;;;;;;5077933;28;20013;-65
2023/07/09 01:54:06;;;;;;;;;;;20.80;94.20;;;;;;5077483;28;20052;-65
2023/07/09 01:56:38;;;;;;;;;;;20.80;94.50;;;;;;5077547;28;20001;-66
2023/07/09 01:59:05;;;;;;;;;;;20.80;94.50;;;;;;5077945;28;20409;-65
2023/07/09 02:01:33;;;;;;;;;;;20.80;94.70;;;;;;5077699;28;20013;-65
2023/07/09 02:04:00;;;;;;;;;;;20.80;95.00;;;;;;5077595;28;20146;-65
2023/07/09 02:06:31;;;;;;;;;;;20.80;95.30;;;;;;5077259;28;20011;-65
2023/07/09 02:08:58;;;;;;;;;;;20.80;95.80;;;;;;5077609;28;20101;-65
2023/07/09 02:11:25;;;;;;;;;;;20.80;95.50;;;;;;5077410;28;20017;-65
2023/07/09 02:13:53;;;;;;;;;;;20.70;95.40;;;;;;5077317;28;20091;-65
2023/07/09 02:16:19;;;;;;;;;;;20.80;95.80;;;;;;5077333;28;20011;-65
2023/07/09 02:18:46;;;;;;;;;;;20.70;96.10;;;;;;5077311;28;20060;-65
2023/07/09 02:21:13;;;;;;;;;;;20.70;96.50;;;;;;5077010;28;20028;-65
2023/07/09 02:23:39;;;;;;;;;;;20.70;97.10;;;;;;5076957;28;20434;-65
2023/07/09 02:26:06;;;;;;;;;;;20.70;97.20;;;;;;5077118;28;20512;-66
2023/07/09 02:28:32;;;;;;;;;;;20.70;97.50;;;;;;5076816;28;20001;-65
2023/07/09 02:31:00;;;;;;;;;;;20.70;98.10;;;;;;5076741;28;20020;-65
2023/07/09 02:33:27;;;;;;;;;;;20.70;98.40;;;;;;5076817;28;20426;-65
2023/07/09 02:35:54;;;;;;;;;;;20.60;98.90;;;;;;5077088;28;20000;-65
2023/07/09 02:38:20;;;;;;;;;;;20.60;99.20;;;;;;5076631;28;20021;-65
2023/07/09 02:40:47;;;;;;;;;;;20.70;99.40;;;;;;5076932;28;20448;-65
2023/07/09 02:43:14;;;;;;;;;;;20.60;99.50;;;;;;5076604;28;20444;-65
2023/07/09 02:45:40;;;;;;;;;;;20.60;99.90;;;;;;5076951;28;20007;-66
2023/07/09 02:48:08;;;;;;;;;;;20.50;99.90;;;;;;5076704;28;20091;-64
2023/07/09 02:50:35;;;;;;;;;;;20.50;99.90;;;;;;5076583;28;20017;-65
2023/07/09 02:53:01;;;;;;;;;;;20.40;99.90;;;;;;5076562;28;20092;-66
2023/07/09 02:55:29;;;;;;;;;;;20.40;99.90;;;;;;5076668;28;20012;-64
2023/07/09 02:57:56;;;;;;;;;;;20.30;99.90;;;;;;5076550;28;20001;-65
2023/07/09 03:00:23;;;;;;;;;;;20.30;99.90;;;;;;5076555;28;20001;-66
2023/07/09 03:02:49;;;;;;;;;;;20.20;99.90;;;;;;5076402;28;20001;-65
2023/07/09 03:05:18;;;;;;;;;;;20.10;99.90;;;;;;5076523;28;20005;-65
2023/07/09 03:07:44;;;;;;;;;;;20.10;99.90;;;;;;5076235;28;20012;-65
2023/07/09 03:10:11;;;;;;;;;;;20.00;99.90;;;;;;5075951;28;20064;-65
2023/07/09 03:12:37;;;;;;;;;;;20.00;99.90;;;;;;5076294;28;20011;-64
2023/07/09 03:15:04;;;;;;;;;;;19.90;99.90;;;;;;5076078;28;20001;-64
2023/07/09 03:17:31;;;;;;;;;;;19.90;99.90;;;;;;5076263;28;20005;-65
2023/07/09 03:19:58;;;;;;;;;;;19.80;99.90;;;;;;5076331;28;20108;-64
2023/07/09 03:22:28;;;;;;;;;;;19.80;99.90;;;;;;5075877;28;20059;-65
2023/07/09 03:24:55;;;;;;;;;;;19.70;99.90;;;;;;5076302;28;20000;-66
2023/07/09 03:27:21;;;;;;;;;;;19.70;99.90;;;;;;5076288;28;20337;-65
2023/07/09 03:29:47;;;;;;;;;;;19.60;99.90;;;;;;5075577;28;20489;-65
2023/07/09 03:32:14;;;;;;;;;;;19.60;99.90;;;;;;5074516;28;20108;-65
2023/07/09 03:34:40;;;;;;;;;;;19.60;99.90;;;;;;5075922;28;20001;-65
2023/07/09 03:37:07;;;;;;;;;;;19.60;99.90;;;;;;5075550;28;20025;-65
2023/07/09 03:39:35;;;;;;;;;;;19.60;99.90;;;;;;5075451;28;20084;-65
2023/07/09 03:42:02;;;;;;;;;;;19.50;99.90;;;;;;5075519;28;20091;-65
2023/07/09 03:44:28;;;;;;;;;;;19.50;99.90;;;;;;5075802;28;20095;-65
2023/07/09 03:46:55;;;;;;;;;;;19.50;99.90;;;;;;5075669;28;20001;-65
2023/07/09 03:49:22;;;;;;;;;;;19.40;99.90;;;;;;5075824;28;20017;-65
2023/07/09 03:51:48;;;;;;;;;;;19.40;99.90;;;;;;5075499;28;20023;-65
2023/07/09 03:54:15;;;;;;;;;;;19.40;99.90;;;;;;5075513;28;20012;-65
2023/07/09 03:56:44;;;;;;;;;;;19.40;99.90;;;;;;5075227;28;20062;-65
2023/07/09 03:59:10;;;;;;;;;;;19.40;99.90;;;;;;5075394;28;20361;-65
2023/07/09 04:01:37;;;;;;;;;;;19.40;99.90;;;;;;5075413;28;20031;-65
2023/07/09 04:04:04;;;;;;;;;;;19.40;99.90;;;;;;5075389;28;20012;-65
2023/07/09 04:06:31;;;;;;;;;;;19.40;99.90;;;;;;5074899;28;20442;-65
2023/07/09 04:08:57;;;;;;;;;;;19.30;99.90;;;;;;5075252;28;20001;-65
2023/07/09 04:11:24;;;;;;;;;;;19.40;99.90;;;;;;5075108;28;20016;-65
2023/07/09 04:13:52;;;;;;;;;;;19.40;99.90;;;;;;5075439;28;20011;-65
2023/07/09 04:16:18;;;;;;;;;;;19.40;99.90;;;;;;5075506;28;20052;-65
2023/07/09 04:18:45;;;;;;;;;;;19.40;99.90;;;;;;5075484;28;20041;-65
2023/07/09 04:21:12;;;;;;;;;;;19.40;99.90;;;;;;5075295;28;20011;-65
2023/07/09 04:23:38;;;;;;;;;;;19.40;99.90;;;;;;5075327;28;20012;-65
2023/07/09 04:26:09;;;;;;;;;;;19.40;99.90;;;;;;5074813;28;20084;-65
2023/07/09 04:28:35;;;;;;;;;;;19.40;99.90;;;;;;5075043;28;20001;-64
2023/07/09 04:31:03;;;;;;;;;;;19.40;99.90;;;;;;5074795;28;20409;-63
2023/07/09 04:33:30;;;;;;;;;;;19.40;99.90;;;;;;5074767;28;20009;-64
2023/07/09 04:35:57;;;;;;;;;;;19.40;99.90;;;;;;5074582;28;20005;-65
2023/07/09 04:38:23;;;;;;;;;;;19.40;99.90;;;;;;5074769;28;20402;-65
2023/07/09 04:40:50;;;;;;;;;;;19.40;99.90;;;;;;5075087;28;20303;-65
2023/07/09 04:43:17;;;;;;;;;;;19.40;99.90;;;;;;5074927;28;20005;-65
2023/07/09 04:45:43;;;;;;;;;;;19.40;99.90;;;;;;5074613;28;20436;-65
2023/07/09 04:48:11;;;;;;;;;;;19.50;99.90;;;;;;5075031;28;20389;-65
2023/07/09 04:50:40;;;;;;;;;;;19.50;99.90;;;;;;5074510;28;20028;-65
2023/07/09 04:53:06;;;;;;;;;;;19.50;99.90;;;;;;5074845;28;20013;-65
2023/07/09 04:55:33;;;;;;;;;;;19.60;99.90;;;;;;5075118;28;20092;-65
2023/07/09 04:58:00;;;;;;;;;;;19.60;99.90;;;;;;5074845;28;20390;-64
2023/07/09 05:00:26;;;;;;;;;;;19.70;99.90;;;;;;5074631;28;20011;-64
2023/07/09 05:02:53;;;;;;;;;;;19.70;99.90;;;;;;5074787;28;20044;-65
2023/07/09 05:05:21;;;;;;;;;;;19.80;99.90;;;;;;5074730;28;20001;-65
2023/07/09 05:07:48;;;;;;;;;;;19.80;99.90;;;;;;5074315;28;20001;-65
2023/07/09 05:10:14;;;;;;;;;;;19.80;99.90;;;;;;5074532;28;20100;-65
2023/07/09 05:12:48;;;;;;;;;;;19.90;99.90;;;;;;5074312;28;20454;-65
2023/07/09 05:15:15;;;;;;;;;;;19.90;99.90;;;;;;5074474;28;20001;-65
2023/07/09 05:17:41;;;;;;;;;;;20.00;99.90;;;;;;5074195;28;20012;-65
2023/07/09 05:20:09;;;;;;;;;;;20.00;99.90;;;;;;5074540;28;20001;-65
2023/07/09 05:22:37;;;;;;;;;;;20.10;99.90;;;;;;5074649;28;20011;-65
2023/07/09 05:25:03;;;;;;;;;;;20.10;99.90;;;;;;5074381;28;20001;-64
2023/07/09 05:27:33;;;;;;;;;;;20.10;99.90;;;;;;5074343;28;20087;-66
2023/07/09 05:30:00;;;;;;;;;;;20.20;99.90;;;;;;5074581;28;20386;-67
2023/07/09 05:32:27;;;;;;;;;;;20.30;99.90;;;;;;5074443;28;20044;-67
2023/07/09 05:34:53;;;;;;;;;;;20.30;99.90;;;;;;5074763;28;20001;-67
2023/07/09 05:37:20;;;;;;;;;;;20.40;99.90;;;;;;5074395;28;20119;-67
2023/07/09 05:39:48;;;;;;;;;;;20.50;99.90;;;;;;5074317;28;20005;-67
2023/07/09 05:42:14;;;;;;;;;;;20.50;99.90;;;;;;5074548;28;20001;-68
2023/07/09 05:44:41;;;;;;;;;;;20.60;99.90;;;;;;5074048;28;20040;-67
2023/07/09 05:47:08;;;;;;;;;;;20.60;99.90;;;;;;5074370;28;20011;-67
2023/07/09 05:49:35;;;;;;;;;;;20.70;99.90;;;;;;5074244;28;20001;-67
2023/07/09 05:52:01;;;;;;;;;;;20.80;99.90;;;;;;5074179;28;20021;-67
2023/07/09 05:54:28;;;;;;;;;;;20.90;99.90;;;;;;5074728;28;20092;-68
2023/07/09 05:56:56;;;;;;;;;;;21.00;99.90;;;;;;5078150;28;20005;-67
2023/07/09 05:59:23;;;;;;;;;;;21.00;99.90;;;;;;5078015;28;20000;-67
2023/07/09 06:01:53;;;;;;;;;;;21.10;99.90;;;;;;5077936;28;20001;-67
2023/07/09 06:04:19;;;;;;;;;;;21.20;99.90;;;;;;5077713;28;20071;-67
2023/07/09 06:06:46;;;;;;;;;;;21.30;99.90;;;;;;5077346;28;20052;-67
2023/07/09 06:09:13;;;;;;;;;;;21.30;99.90;;;;;;5077788;28;20013;-67
2023/07/09 06:11:40;;;;;;;;;;;21.40;99.90;;;;;;5078230;28;20013;-68
2023/07/09 06:14:08;;;;;;;;;;;21.50;99.90;;;;;;5077665;28;20096;-67
2023/07/09 06:16:35;;;;;;;;;;;21.50;99.90;;;;;;5077974;28;20002;-67
2023/07/09 06:19:02;;;;;;;;;;;21.70;99.90;;;;;;5077233;28;20024;-67
2023/07/09 06:21:29;;;;;;;;;;;21.70;99.90;;;;;;5077361;28;20092;-67
2023/07/09 06:23:55;;;;;;;;;;;21.80;99.90;;;;;;5077016;28;20005;-67
2023/07/09 06:26:22;;;;;;;;;;;22.00;99.90;;;;;;5077024;28;20055;-67
2023/07/09 06:28:49;;;;;;;;;;;22.10;99.90;;;;;;5077564;28;20074;-67
2023/07/09 06:31:18;;;;;;;;;;;22.20;99.90;;;;;;5077064;28;20447;-70
2023/07/09 06:33:45;;;;;;;;;;;22.30;99.90;;;;;;5077259;28;20001;-67
2023/07/09 06:36:12;;;;;;;;;;;22.40;99.90;;;;;;5077475;28;20001;-67
2023/07/09 06:38:38;;;;;;;;;;;22.50;99.90;;;;;;5076699;28;20031;-67
2023/07/09 06:41:05;;;;;;;;;;;22.60;99.90;;;;;;5077460;28;20294;-68
2023/07/09 06:43:32;;;;;;;;;;;22.70;99.90;;;;;;5077072;28;20001;-68
2023/07/09 06:46:02;;;;;;;;;;;22.70;99.90;;;;;;5076684;28;20054;-68
2023/07/09 06:48:30;;;;;;;;;;;22.90;99.90;;;;;;5076888;28;20023;-67
2023/07/09 06:50:58;;;;;;;;;;;23.00;99.90;;;;;;5076723;28;20092;-67
2023/07/09 06:53:25;;;;;;;;;;;23.00;99.90;;;;;;5076885;28;20002;-68
2023/07/09 06:55:58;;;;;;;;;;;23.20;99.90;;;;;;5076823;28;20338;-67
2023/07/09 06:58:27;;;;;;;;;;;23.40;99.90;;;;;;5076632;28;20001;-67
2023/07/09 07:00:57;;;;;;;;;;;23.40;99.90;;;;;;5076580;28;20001;-67
2023/07/09 07:03:24;;;;;;;;;;;23.50;99.90;;;;;;5076470;28;20001;-67
2023/07/09 07:05:54;;;;;;;;;;;23.50;99.90;;;;;;5076643;28;20001;-68
2023/07/09 07:08:22;;;;;;;;;;;23.60;99.90;;;;;;5076422;28;20118;-67
2023/07/09 07:10:49;;;;;;;;;;;23.70;99.90;;;;;;5076544;28;20048;-68
2023/07/09 07:13:16;;;;;;;;;;;23.80;99.90;;;;;;5075931;28;20477;-68
2023/07/09 07:15:48;;;;;;;;;;;23.90;99.90;;;;;;5076124;28;20472;-68
2023/07/09 07:18:15;;;;;;;;;;;24.00;99.90;;;;;;5076466;28;20399;-68
2023/07/09 07:20:42;;;;;;;;;;;24.00;99.90;;;;;;5076313;28;20002;-67
2023/07/09 07:23:10;;;;;;;;;;;24.00;99.90;;;;;;5076160;28;20001;-67
2023/07/09 07:25:36;;;;;;;;;;;24.10;99.90;;;;;;5076202;28;20103;-67
2023/07/09 07:28:03;;;;;;;;;;;24.20;99.90;;;;;;5075959;28;20115;-67
2023/07/09 07:30:30;;;;;;;;;;;24.30;99.40;;;;;;5076099;28;20001;-68
2023/07/09 07:32:56;;;;;;;;;;;24.40;99.30;;;;;;5076093;28;20053;-68
2023/07/09 07:35:23;;;;;;;;;;;24.40;99.90;;;;;;5075953;28;20001;-68
2023/07/09 07:37:50;;;;;;;;;;;24.50;99.30;;;;;;5075610;28;20021;-68
2023/07/09 07:40:18;;;;;;;;;;;24.50;99.00;;;;;;5075948;28;20001;-67
2023/07/09 07:42:45;;;;;;;;;;;24.50;98.90;;;;;;5075751;28;20011;-68
2023/07/09 07:45:12;;;;;;;;;;;24.70;99.10;;;;;;5075902;28;20001;-68
2023/07/09 07:47:40;;;;;;;;;;;24.70;97.30;;;;;;5075833;28;20099;-68
2023/07/09 07:50:08;;;;;;;;;;;24.80;97.70;;;;;;5075721;28;20012;-68
2023/07/09 07:52:37;;;;;;;;;;;24.90;96.30;;;;;;5075643;28;20337;-67
2023/07/09 07:55:04;;;;;;;;;;;25.00;97.00;;;;;;5075834;28;20012;-68
2023/07/09 07:57:32;;;;;;;;;;;24.90;96.60;;;;;;5075454;28;20005;-67
2023/07/09 07:59:58;;;;;;;;;;;25.00;95.50;;;;;;5075525;28;20337;-67
2023/07/09 08:02:25;;;;;;;;;;;25.00;95.80;;;;;;5075497;28;20426;-67
2023/07/09 08:04:52;;;;;;;;;;;25.00;96.70;;;;;;5075691;28;20105;-68
2023/07/09 08:07:19;;;;;;;;;;;25.10;96.10;;;;;;5075644;28;20361;-68
2023/07/09 08:09:47;;;;;;;;;;;25.10;96.20;;;;;;5075095;28;20469;-68
2023/07/09 08:12:14;;;;;;;;;;;25.10;96.00;;;;;;5075249;28;20013;-68
2023/07/09 08:14:43;;;;;;;;;;;25.30;95.50;;;;;;5074939;28;20011;-68
2023/07/09 08:17:09;;;;;;;;;;;25.30;96.00;;;;;;5074500;28;20095;-67
2023/07/09 08:19:44;;;;;;;;;;;25.40;96.50;;;;;;5075248;28;20293;-67
2023/07/09 08:22:11;;;;;;;;;;;25.40;95.80;;;;;;5075052;28;20044;-67
2023/07/09 08:24:38;;;;;;;;;;;25.40;95.40;;;;;;5075226;28;20041;-67
2023/07/09 08:27:06;;;;;;;;;;;25.50;95.80;;;;;;5074992;28;20017;-68
2023/07/09 08:29:33;;;;;;;;;;;25.60;95.30;;;;;;5075186;28;20388;-68
2023/07/09 08:32:01;;;;;;;;;;;25.60;95.00;;;;;;5075001;28;20155;-67
2023/07/09 08:34:31;;;;;;;;;;;25.70;93.20;;;;;;5074820;28;20108;-67
2023/07/09 08:37:01;;;;;;;;;;;25.70;93.20;;;;;;5074853;28;20032;-68
2023/07/09 08:39:27;;;;;;;;;;;25.80;93.10;;;;;;5074883;28;20036;-67
2023/07/09 08:42:01;;;;;;;;;;;25.80;93.20;;;;;;5074968;28;20001;-67
2023/07/09 08:44:46;;;;;;;;;;;25.90;92.60;;;;;;5074758;28;20029;-68
2023/07/09 08:47:17;;;;;;;;;;;25.90;91.90;;;;;;5074642;28;20007;-67
2023/07/09 08:49:46;;;;;;;;;;;25.90;91.10;;;;;;5074966;28;20015;-66
2023/07/09 08:52:16;;;;;;;;;;;25.90;92.00;;;;;;5074656;28;20017;-67
2023/07/09 08:54:43;;;;;;;;;;;26.00;91.90;;;;;;5074720;28;20013;-67
2023/07/09 08:57:16;;;;;;;;;;;26.00;90.30;;;;;;5074659;28;20008;-67
2023/07/09 08:59:42;;;;;;;;;;;26.10;88.70;;;;;;5075084;28;20092;-68
2023/07/09 09:02:16;;;;;;;;;;;26.10;88.60;;;;;;5074882;28;20092;-67
2023/07/09 09:04:45;;;;;;;;;;;26.20;87.60;;;;;;5074432;28;19997;-67
2023/07/09 09:07:15;;;;;;;;;;;26.20;86.60;;;;;;5074403;28;20092;-68
2023/07/09 09:09:48;;;;;;;;;;;26.20;85.60;;;;;;5074372;28;19997;-67
2023/07/09 09:12:16;;;;;;;;;;;26.30;84.50;;;;;;5074387;28;20013;-68
2023/07/09 09:14:44;;;;;;;;;;;26.40;77.10;;;;;;5074537;28;20083;-68
2023/07/09 09:17:14;;;;;;;;;;;26.40;77.60;;;;;;5074749;28;20341;-68
2023/07/09 09:19:46;;;;;;;;;;;26.50;78.60;;;;;;5074764;28;20013;-67
2023/07/09 09:22:14;;;;;;;;;;;26.50;79.30;;;;;;5074503;28;20084;-68
2023/07/09 09:24:44;;;;;;;;;;;26.50;77.00;;;;;;5074509;28;20001;-68
2023/07/09 09:27:11;;;;;;;;;;;26.50;72.00;;;;;;5074165;28;20092;-68
2023/07/09 09:29:37;;;;;;;;;;;26.70;62.50;;;;;;5076518;28;20083;-68
2023/07/09 09:32:18;;;;;;;;;;;26.80;65.80;;;;;;5077780;28;20013;-68
2023/07/09 09:34:46;;;;;;;;;;;26.90;66.20;;;;;;5078218;28;19997;-68
2023/07/09 09:37:12;;;;;;;;;;;26.90;62.00;;;;;;5077884;28;20021;-68
2023/07/09 09:39:39;;;;;;;;;;;26.90;58.60;;;;;;5077968;28;20349;-68
2023/07/09 09:42:11;;;;;;;;;;;26.90;61.60;;;;;;5077932;28;20011;-68
2023/07/09 09:44:43;;;;;;;;;;;26.90;61.90;;;;;;5077951;28;19998;-68
2023/07/09 09:47:13;;;;;;;;;;;27.00;65.40;;;;;;5078356;28;20043;-68
2023/07/09 09:49:40;;;;;;;;;;;26.90;64.90;;;;;;5078084;28;20012;-68
2023/07/09 09:52:11;;;;;;;;;;;26.90;65.20;;;;;;5077724;28;20433;-68
2023/07/09 09:54:41;;;;;;;;;;;26.90;62.10;;;;;;5077689;28;20468;-69
2023/07/09 09:57:16;;;;;;;;;;;26.90;60.10;;;;;;5077908;28;20001;-68
2023/07/09 09:59:43;;;;;;;;;;;27.00;61.70;;;;;;5077993;28;19997;-68
2023/07/09 10:02:16;;;;;;;;;;;27.10;59.40;;;;;;5078110;28;20099;-67
2023/07/09 10:04:43;;;;;;;;;;;27.20;56.40;;;;;;5078052;28;20008;-67
2023/07/09 10:07:16;;;;;;;;;;;27.30;57.20;;;;;;5078037;28;20001;-67
2023/07/09 10:09:47;;;;;;;;;;;27.30;59.60;;;;;;5077734;28;20001;-67
2023/07/09 10:12:16;;;;;;;;;;;27.30;58.20;;;;;;5077497;28;19997;-67
2023/07/09 10:14:49;;;;;;;;;;;27.30;57.90;;;;;;5077165;28;20001;-67
2023/07/09 10:17:21;;;;;;;;;;;27.30;58.20;;;;;;5077326;28;19997;-67
2023/07/09 10:19:57;;;;;;;;;;;27.30;57.60;;;;;;5077532;28;20007;-68
2023/07/09 10:22:40;;;;;;;;;;;27.40;57.50;;;;;;5077562;28;19996;-68
2023/07/09 10:25:13;;;;;;;;;;;27.40;55.30;;;;;;5077237;28;20007;-68
2023/07/09 10:27:45;;;;;;;;;;;27.40;53.40;;;;;;5077380;28;20348;-68
2023/07/09 10:30:17;;;;;;;;;;;27.40;52.20;;;;;;5077164;28;20007;-68
2023/07/09 10:32:50;;;;;;;;;;;27.50;51.50;;;;;;5076649;28;20017;-67
2023/07/09 10:35:23;;;;;;;;;;;27.60;52.40;;;;;;5077249;28;19997;-67
2023/07/09 10:37:56;;;;;;;;;;;27.60;53.40;;;;;;5076682;28;20025;-68
2023/07/09 10:40:29;;;;;;;;;;;27.60;55.60;;;;;;5076685;28;20487;-68
2023/07/09 10:42:58;;;;;;;;;;;27.70;56.60;;;;;;5077097;28;19997;-69
2023/07/09 10:45:29;;;;;;;;;;;27.80;58.00;;;;;;5077277;28;20000;-67
2023/07/09 10:47:58;;;;;;;;;;;27.90;56.00;;;;;;5077180;28;20001;-68
2023/07/09 10:50:28;;;;;;;;;;;27.90;56.40;;;;;;5077607;28;20001;-68
2023/07/09 10:52:58;;;;;;;;;;;27.90;56.40;;;;;;5077091;28;20108;-68
2023/07/09 10:55:29;;;;;;;;;;;27.90;54.70;;;;;;5076990;28;20001;-68
2023/07/09 10:58:00;;;;;;;;;;;28.00;54.90;;;;;;5076841;28;20419;-68
2023/07/09 11:00:34;;;;;;;;;;;28.00;53.90;;;;;;5076620;28;20007;-68
2023/07/09 11:03:02;;;;;;;;;;;28.10;53.30;;;;;;5076553;28;19998;-68
2023/07/09 11:05:29;;;;;;;;;;;28.20;56.30;;;;;;5076503;28;20136;-68
2023/07/09 11:08:01;;;;;;;;;;;28.20;54.20;;;;;;5076352;28;20008;-68
2023/07/09 11:10:29;;;;;;;;;;;28.20;53.70;;;;;;5076701;28;20331;-68
2023/07/09 11:12:59;;;;;;;;;;;28.30;52.60;;;;;;5076306;28;20064;-68
2023/07/09 11:15:31;;;;;;;;;;;28.30;51.60;;;;;;5076413;28;20027;-68
2023/07/09 11:17:59;;;;;;;;;;;28.40;51.70;;;;;;5076405;28;19997;-68
2023/07/09 11:20:27;;;;;;;;;;;28.60;51.10;;;;;;5076261;28;20002;-68
2023/07/09 11:22:55;;;;;;;;;;;28.80;51.30;;;;;;5076572;28;20069;-68
2023/07/09 11:25:30;;;;;;;;;;;29.00;53.20;;;;;;5076209;28;20055;-68
2023/07/09 11:28:03;;;;;;;;;;;29.50;51.80;;;;;;5076135;28;20100;-68
2023/07/09 11:30:30;;;;;;;;;;;30.50;47.50;;;;;;5076249;28;20456;-68
2023/07/09 11:32:57;;;;;;;;;;;31.70;46.80;;;;;;5075846;28;20112;-68
2023/07/09 11:35:25;;;;;;;;;;;32.90;44.30;;;;;;5076006;28;20012;-67
2023/07/09 11:37:53;;;;;;;;;;;34.10;39.20;;;;;;5075692;28;20021;-67
2023/07/09 11:40:21;;;;;;;;;;;35.20;35.20;;;;;;5075932;28;20346;-67
2023/07/09 11:42:52;;;;;;;;;;;36.20;33.00;;;;;;5075956;28;20011;-67
2023/07/09 11:45:21;;;;;;;;;;;37.00;30.40;;;;;;5075852;28;20330;-67
2023/07/09 11:47:50;;;;;;;;;;;37.80;28.70;;;;;;5075659;28;20001;-68
2023/07/09 11:50:22;;;;;;;;;;;38.40;27.60;;;;;;5075359;28;20008;-68
2023/07/09 11:52:51;;;;;;;;;;;39.00;25.00;;;;;;5074846;28;20017;-66
2023/07/09 11:55:21;;;;;;;;;;;39.40;23.10;;;;;;5075313;28;20001;-67
2023/07/09 11:57:53;;;;;;;;;;;39.70;21.70;;;;;;5075660;28;20366;-67
2023/07/09 12:00:19;;;;;;;;;;;40.00;22.10;;;;;;5074980;28;20003;-67
2023/07/09 12:02:47;;;;;;;;;;;40.40;21.70;;;;;;5075456;28;20020;-68
2023/07/09 12:05:14;;;;;;;;;;;40.60;20.40;;;;;;5075376;28;20096;-68
2023/07/09 12:10:45;;;;;;;;;;;41.00;19.60;;;;;;5082114;28;19992;-68
2023/07/09 12:13:13;;;;;;;;;;;41.10;18.70;;;;;;5075171;28;20017;-68
2023/07/09 12:15:40;;;;;;;;;;;41.20;18.00;;;;;;5075077;28;20008;-68
2023/07/09 12:18:11;;;;;;;;;;;41.40;17.70;;;;;;5074782;28;20001;-68
2023/07/09 12:20:37;;;;;;;;;;;41.30;16.20;;;;;;5075558;28;20026;-68
2023/07/09 12:23:11;;;;;;;;;;;40.80;16.00;;;;;;5075261;28;20001;-68
2023/07/09 12:25:38;;;;;;;;;;;40.70;16.10;;;;;;5075244;28;20008;-68
2023/07/09 12:28:04;;;;;;;;;;;40.40;16.90;;;;;;5074928;28;20091;-68
2023/07/09 12:30:34;;;;;;;;;;;40.50;16.60;;;;;;5075193;28;20012;-68
2023/07/09 12:33:01;;;;;;;;;;;40.60;16.80;;;;;;5074912;28;20025;-68
2023/07/09 12:35:29;;;;;;;;;;;40.90;17.00;;;;;;5075312;28;20055;-68
2023/07/09 12:37:58;;;;;;;;;;;40.90;16.00;;;;;;5074625;28;20353;-68
2023/07/09 12:40:28;;;;;;;;;;;40.80;14.90;;;;;;5075149;28;20012;-68
2023/07/09 12:42:57;;;;;;;;;;;40.80;16.00;;;;;;5074830;28;20379;-68
2023/07/09 12:45:24;;;;;;;;;;;40.80;15.80;;;;;;5075130;28;20001;-68
2023/07/09 12:47:52;;;;;;;;;;;40.70;15.20;;;;;;5074797;28;20005;-68
2023/07/09 12:50:30;;;;;;;;;;;40.80;15.20;;;;;;5074621;28;20001;-68
2023/07/09 12:53:01;;;;;;;;;;;40.50;15.10;;;;;;5074832;28;20383;-68
2023/07/09 12:55:31;;;;;;;;;;;40.50;14.30;;;;;;5074572;28;20001;-68
2023/07/09 12:57:59;;;;;;;;;;;40.60;15.20;;;;;;5074831;28;20406;-68
2023/07/09 13:00:29;;;;;;;;;;;40.80;15.00;;;;;;5074622;28;20102;-68
2023/07/09 13:03:01;;;;;;;;;;;41.00;14.50;;;;;;5074868;28;20023;-69
2023/07/09 13:05:28;;;;;;;;;;;41.20;13.80;;;;;;5078312;28;19998;-68
2023/07/09 13:07:55;;;;;;;;;;;41.10;13.10;;;;;;5078571;28;20422;-68
2023/07/09 13:10:25;;;;;;;;;;;41.30;13.80;;;;;;5078749;28;20009;-68
2023/07/09 13:12:52;;;;;;;;;;;41.30;13.50;;;;;;5078826;28;20001;-68
2023/07/09 13:15:26;;;;;;;;;;;41.10;13.60;;;;;;5078705;28;20082;-68
2023/07/09 13:18:01;;;;;;;;;;;41.10;13.20;;;;;;5078975;28;20048;-68
2023/07/09 13:20:28;;;;;;;;;;;41.10;12.80;;;;;;5078596;28;20023;-68
2023/07/09 13:22:55;;;;;;;;;;;41.00;13.20;;;;;;5078377;28;20444;-68
2023/07/09 13:25:22;;;;;;;;;;;40.70;12.70;;;;;;5078659;28;20084;-68
2023/07/09 13:27:48;;;;;;;;;;;40.60;13.70;;;;;;5078666;28;20012;-68
2023/07/09 13:30:15;;;;;;;;;;;40.70;12.70;;;;;;5078326;28;20096;-68
2023/07/09 13:32:42;;;;;;;;;;;40.70;13.00;;;;;;5078280;28;20001;-68
2023/07/09 13:35:16;;;;;;;;;;;40.60;12.80;;;;;;5078273;28;20013;-68
2023/07/09 13:37:46;;;;;;;;;;;40.70;13.30;;;;;;5078086;28;20042;-68
2023/07/09 13:40:13;;;;;;;;;;;40.60;12.50;;;;;;5078431;28;20095;-68
2023/07/09 13:42:41;;;;;;;;;;;40.70;13.00;;;;;;5078562;28;20001;-68
2023/07/09 13:45:16;;;;;;;;;;;40.80;12.30;;;;;;5078458;28;20092;-68
2023/07/09 13:47:42;;;;;;;;;;;40.60;12.60;;;;;;5077840;28;20405;-68
2023/07/09 13:50:09;;;;;;;;;;;40.40;12.60;;;;;;5077815;28;20001;-68
2023/07/09 13:52:37;;;;;;;;;;;40.20;12.40;;;;;;5077774;28;20007;-68
2023/07/09 13:55:05;;;;;;;;;;;40.00;13.10;;;;;;5077901;28;20017;-68
2023/07/09 13:57:34;;;;;;;;;;;39.60;12.90;;;;;;5078083;28;20409;-68
2023/07/09 14:00:01;;;;;;;;;;;39.70;13.30;;;;;;5077873;28;20510;-68
2023/07/09 14:02:31;;;;;;;;;;;39.70;13.40;;;;;;5078289;28;20088;-68
2023/07/09 14:04:58;;;;;;;;;;;39.80;13.50;;;;;;5077599;28;20055;-68
2023/07/09 14:07:26;;;;;;;;;;;39.80;12.60;;;;;;5077932;28;20153;-68
2023/07/09 14:09:54;;;;;;;;;;;39.80;12.80;;;;;;5077678;28;20095;-68
2023/07/09 14:12:21;;;;;;;;;;;39.90;12.70;;;;;;5077836;28;20015;-68
2023/07/09 14:14:50;;;;;;;;;;;39.80;12.50;;;;;;5077261;28;20056;-68
2023/07/09 14:17:16;;;;;;;;;;;39.80;12.30;;;;;;5077346;28;20001;-68
2023/07/09 14:19:43;;;;;;;;;;;39.70;12.70;;;;;;5077410;28;20095;-68
2023/07/09 14:22:20;;;;;;;;;;;39.80;12.70;;;;;;5077616;28;20012;-68
2023/07/09 14:24:47;;;;;;;;;;;39.70;12.30;;;;;;5077420;28;19997;-68
2023/07/09 14:27:15;;;;;;;;;;;39.60;12.50;;;;;;5077094;28;20011;-68